Terminal Aerodrome Forecast
Issued by NWS Riverton, WY

Home | Current Version | Previous Version | Text Only | Print | Product List | Glossary On
Versions: 1 2 3 4 5 6 7 8 9 10 11 12 13 14 15 16 17 18 19 20
000
FTUS45 KRIW 280500
TAFRIW
TAF
KRIW 280534Z 2806/0106 03006KT P6SM -SN OVC035
     FM280900 02009KT 6SM -SN BKN022
     FM281200 05006KT P6SM -SN OVC018
     FM282000 07008KT P6SM VCSH OVC024
     FM010400 06006KT P6SM OVC028=

USA.gov is the U.S. government's official web portal to all federal, state and local government web resources and services.